Main page
METAR-TAF:

METAR-TAF

Airports :

Bahrain International Airport

Bahrain, Bahrain

latitude: 26-16N, longitude: 050-39E, elevation: 2 m

Current weather observation

The report was made 16 minutes ago, at 08:30 UTC
Wind 9 kt from the East/Northeast, varying between North/Northeast and East
Temperature 26°C
Humidity 61%
Pressure 1013 hPa
Visibility 10 km or more
no clouds below 1500 m and no cumulonimbus

METAR: OBBI 030830Z 06009KT 020V100 CAVOK 26/18 Q1013 NOSIG

Time: 11:46 (08:46 UTC)

Forecast

The report was made 3 hours and 46 minutes ago, at 05:00 UTC
Forecast valid from 03 at 06 UTC to 04 at 12 UTC
Wind 10 kt from the East/Southeast
Visibility 10 km or more
no clouds below 1500 m and no cumulonimbus
Becoming
from 03 at 20 UTC to 03 at 22 UTC
Wind 10 kt from the North

TAF: OBBI 030500Z 0306/0412 12010KT CAVOK BECMG 0320/0322 01010KT

Weather observations and forecasts of more than 4000 airports (METAR and TAF reports).

The available stations are represented by yellow and red dots on the map.

Hover mouse over dot to see the name of the station.

Then click to see weather observations and forecasts.

To change the map : click on the green buttons with a black cross to zoom in, on the green button with a dash to zoom out, or on the green arrows for adjacent maps.


METAR-TAF: